< < Back
Terminal Aerodrome Forecast


Current Version              Previous Versions:   1  2  3  4  5  6  7  8  9  

Terminal Aerodrome Forecast

975
FTUS44 KMRX 291725
TAFCHA
TAF
KCHA 291725Z 2918/3018 17006KT P6SM SCT250
     FM300000 18006KT P6SM BKN050
     FM300400 20006KT P6SM VCSH OVC040
     FM300600 24007KT 4SM SHRA BR OVC020
     FM300900 34005KT 6SM BR BKN015
     FM301300 33008KT P6SM SCT030=



Latest METAR

409
SAUS80 KWBC 300500 RRA
MTRCHA
METAR KCHA 300453Z AUTO 19005KT 10SM SCT060 12/00 A3017 RMK AO2 SLP213
T01220000 401721022 $


USA.gov is the U.S. government's official web portal to all federal, state and local government web resources and services.